Time;durP1;ratioP1;P1;durP2;ratioP2;P2;SDS_P1;SDS_P2;PMS_P1;PMS_P2;Temp;Humidity;BMP_temperature;BMP_pressure;BME280_temperature;BME280_humidity;BME280_pressure;Samples;Min_cycle;Max_cycle;Signal;HPM_P1;HPM_P2
2022/12/03 00:01:11;;;;;;;46.65;26.17;;;4.00;99.90;;;;;;5092613;28;20031;-72
2022/12/03 00:03:37;;;;;;;39.60;22.42;;;4.00;99.90;;;;;;5091526;28;20035;-72
2022/12/03 00:06:03;;;;;;;45.22;23.92;;;4.00;99.90;;;;;;5092731;28;20036;-72
2022/12/03 00:08:29;;;;;;;48.75;23.95;;;3.90;99.90;;;;;;5092443;28;20044;-72
2022/12/03 00:10:54;;;;;;;45.30;24.23;;;4.00;99.90;;;;;;5092651;28;20024;-72
2022/12/03 00:13:20;;;;;;;48.75;22.85;;;3.90;99.90;;;;;;5091016;28;20447;-72
2022/12/03 00:15:46;;;;;;;44.85;24.50;;;4.00;99.90;;;;;;5092642;28;20029;-72
2022/12/03 00:18:11;;;;;;;44.25;24.08;;;4.00;99.90;;;;;;5091275;28;20089;-73
2022/12/03 00:20:37;;;;;;;45.72;22.25;;;4.10;99.90;;;;;;5091367;28;20027;-72
2022/12/03 00:23:03;;;;;;;37.78;22.33;;;4.00;99.90;;;;;;5091199;28;20051;-72
2022/12/03 00:25:29;;;;;;;40.28;22.92;;;4.00;99.90;;;;;;5091233;28;20039;-72
2022/12/03 00:27:54;;;;;;;45.75;23.25;;;4.10;99.90;;;;;;5092524;28;20016;-72
2022/12/03 00:30:20;;;;;;;37.22;22.35;;;4.30;99.90;;;;;;5092452;28;20059;-73
2022/12/03 00:32:46;;;;;;;39.72;22.10;;;4.10;99.90;;;;;;5091322;28;20022;-73
2022/12/03 00:35:12;;;;;;;41.22;22.42;;;4.20;99.90;;;;;;5092349;28;20043;-72
2022/12/03 00:37:37;;;;;;;49.50;25.63;;;4.20;99.90;;;;;;5090952;28;20024;-72
2022/12/03 00:40:04;;;;;;;46.60;25.55;;;4.20;99.90;;;;;;5092396;28;20388;-72
2022/12/03 00:42:30;;;;;;;47.28;24.50;;;4.30;99.90;;;;;;5092219;28;20020;-72
2022/12/03 00:44:56;;;;;;;44.05;23.60;;;4.20;99.90;;;;;;5092497;28;20047;-72
2022/12/03 00:47:22;;;;;;;40.92;22.77;;;4.20;99.90;;;;;;5092310;28;20414;-72
2022/12/03 00:49:47;;;;;;;39.00;21.88;;;4.40;99.90;;;;;;5091219;28;20095;-72
2022/12/03 00:52:13;;;;;;;39.70;21.67;;;4.30;99.90;;;;;;5090432;28;20047;-72
2022/12/03 00:54:39;;;;;;;41.35;22.70;;;4.50;99.90;;;;;;5092452;28;20455;-72
2022/12/03 00:57:05;;;;;;;37.10;21.73;;;4.50;99.90;;;;;;5081759;28;20127;-72
2022/12/03 00:59:30;;;;;;;40.72;22.80;;;4.50;99.90;;;;;;5087194;28;20020;-72
2022/12/03 01:01:56;;;;;;;41.30;20.95;;;4.40;99.90;;;;;;5092087;28;20106;-72
2022/12/03 01:04:22;;;;;;;43.75;22.98;;;4.20;99.90;;;;;;5092497;28;20071;-72
2022/12/03 01:06:47;;;;;;;37.72;21.92;;;4.20;99.90;;;;;;5091726;28;20114;-72
2022/12/03 01:09:13;;;;;;;38.92;21.75;;;4.10;99.90;;;;;;5092056;28;20089;-72
2022/12/03 01:11:40;;;;;;;35.00;21.25;;;4.10;99.90;;;;;;5079076;28;20036;-72
2022/12/03 01:14:13;;;;;;;34.55;19.67;;;4.20;99.90;;;;;;5095708;28;20036;-72
2022/12/03 01:16:39;;;;;;;42.13;22.52;;;4.20;99.90;;;;;;5095520;28;20529;-72
2022/12/03 01:19:09;;;;;;;56.35;25.50;;;4.20;99.90;;;;;;5095753;28;20469;-72
2022/12/03 01:21:35;;;;;;;36.75;21.35;;;4.20;99.90;;;;;;5093774;28;20533;-71
2022/12/03 01:24:02;;;;;;;36.90;20.73;;;4.00;99.90;;;;;;5092440;28;20040;-72
2022/12/03 01:26:28;;;;;;;38.63;20.05;;;4.00;99.90;;;;;;5087617;28;20464;-72
2022/12/03 01:28:54;;;;;;;38.53;21.15;;;4.00;99.90;;;;;;5095068;28;20027;-72
2022/12/03 01:34:05;;;;;;;39.05;22.42;;;4.30;99.90;;;;;;5095326;28;20040;-72
2022/12/03 01:36:33;;;;;;;37.17;22.45;;;4.50;99.90;;;;;;5094761;28;20050;-72
2022/12/03 01:38:59;;;;;;;39.25;21.33;;;4.40;99.90;;;;;;5094086;28;20023;-72
2022/12/03 01:41:25;;;;;;;44.25;21.90;;;4.30;99.90;;;;;;5095308;28;20036;-72
2022/12/03 01:43:52;;;;;;;40.13;20.95;;;4.20;99.90;;;;;;5094814;28;20081;-72
2022/12/03 01:46:23;;;;;;;41.50;22.77;;;4.30;99.90;;;;;;5093595;28;20484;-72
2022/12/03 01:48:51;;;;;;;37.85;20.98;;;4.30;99.90;;;;;;5094975;28;20089;-72
2022/12/03 01:51:17;;;;;;;36.97;21.80;;;4.10;99.90;;;;;;5093570;28;20069;-72
2022/12/03 01:53:43;;;;;;;37.28;21.77;;;4.00;99.90;;;;;;5094941;28;20432;-72
2022/12/03 01:56:17;;;;;;;38.58;22.27;;;3.90;99.90;;;;;;5094868;28;20119;-72
2022/12/03 01:58:44;;;;;;;34.55;21.67;;;4.20;99.90;;;;;;5093410;28;20059;-72
2022/12/03 02:01:13;;;;;;;52.67;25.25;;;4.40;99.90;;;;;;5093685;28;20480;-72
2022/12/03 02:03:39;;;;;;;41.10;21.38;;;4.30;99.90;;;;;;5093547;28;20028;-72
2022/12/03 02:06:16;;;;;;;42.03;22.88;;;4.30;99.90;;;;;;5094193;28;20028;-72
2022/12/03 02:08:42;;;;;;;42.55;20.52;;;4.50;99.90;;;;;;5094780;28;20032;-72
2022/12/03 02:11:34;;;;;;;42.92;23.80;;;4.50;99.90;;;;;;5094436;28;20085;-72
2022/12/03 02:14:03;;;;;;;39.30;22.60;;;4.50;99.90;;;;;;5094276;28;20118;-72
2022/12/03 02:16:29;;;;;;;39.42;23.17;;;4.40;99.90;;;;;;5094493;28;20035;-72
2022/12/03 02:18:56;;;;;;;47.75;25.50;;;4.30;99.90;;;;;;5094360;28;20035;-71
2022/12/03 02:21:41;;;;;;;41.55;22.55;;;4.20;99.90;;;;;;5093949;28;20012;-72
2022/12/03 02:24:24;;;;;;;35.60;21.02;;;4.20;99.90;;;;;;5094104;28;20036;-72
2022/12/03 02:26:50;;;;;;;39.30;21.73;;;4.10;99.90;;;;;;5093320;28;20043;-72
2022/12/03 02:29:16;;;;;;;42.72;23.00;;;4.30;99.90;;;;;;5094170;28;20031;-72
2022/12/03 02:31:42;;;;;;;38.10;20.73;;;4.30;99.90;;;;;;5094475;28;20056;-72
2022/12/03 02:34:09;;;;;;;38.00;22.50;;;4.20;99.90;;;;;;5092166;28;20027;-72
2022/12/03 02:36:36;;;;;;;39.05;21.98;;;4.10;99.90;;;;;;5094067;28;20107;-71
2022/12/03 02:39:02;;;;;;;40.40;21.13;;;4.30;99.90;;;;;;5094239;28;20024;-71
2022/12/03 02:44:13;;;;;;;40.30;22.73;;;4.30;99.90;;;;;;5093787;28;20055;-71
2022/12/03 02:46:38;;;;;;;38.13;20.98;;;4.40;99.90;;;;;;5093949;28;20494;-72
2022/12/03 02:49:05;;;;;;;37.80;22.45;;;4.20;99.90;;;;;;5093632;28;20024;-72
2022/12/03 02:51:32;;;;;;;48.80;26.65;;;4.30;99.90;;;;;;5092482;28;20024;-72
2022/12/03 02:53:59;;;;;;;56.95;27.65;;;4.30;99.90;;;;;;5092554;28;20468;-72
2022/12/03 02:56:28;;;;;;;46.60;24.90;;;4.50;99.90;;;;;;5093892;28;20107;-72
2022/12/03 02:58:58;;;;;;;43.58;22.45;;;4.70;99.90;;;;;;5093421;28;20086;-72
2022/12/03 03:01:24;;;;;;;49.22;25.08;;;4.50;99.90;;;;;;5093724;28;20047;-73
2022/12/03 03:03:51;;;;;;;48.42;25.58;;;4.40;99.90;;;;;;5093190;28;20032;-72
2022/12/03 03:06:17;;;;;;;51.58;25.65;;;4.30;99.90;;;;;;5092181;28;20057;-72
2022/12/03 03:08:44;;;;;;;45.83;24.67;;;4.40;99.90;;;;;;5093695;28;20032;-72
2022/12/03 03:11:10;;;;;;;41.92;23.65;;;4.40;99.90;;;;;;5093578;28;20502;-72
2022/12/03 03:13:36;;;;;;;42.40;22.88;;;4.50;99.90;;;;;;5093587;28;20028;-72
2022/12/03 03:16:07;;;;;;;51.25;25.05;;;4.30;99.90;;;;;;5093193;28;20029;-72
2022/12/03 03:18:33;;;;;;;45.90;23.85;;;4.30;99.90;;;;;;5093253;28;20032;-73
2022/12/03 03:20:59;;;;;;;50.17;25.98;;;4.20;99.90;;;;;;5093148;28;20024;-72
2022/12/03 03:23:25;;;;;;;50.10;26.65;;;4.50;99.90;;;;;;5093374;28;20115;-72
2022/12/03 03:26:00;;;;;;;57.38;29.38;;;4.40;99.90;;;;;;5092962;28;20471;-72
2022/12/03 03:28:27;;;;;;;53.22;27.33;;;4.50;99.90;;;;;;5093258;28;20491;-72
2022/12/03 03:30:54;;;;;;;44.22;24.45;;;4.60;99.90;;;;;;5092871;28;20039;-72
2022/12/03 03:33:20;;;;;;;44.10;25.00;;;4.30;99.90;;;;;;5092399;28;20019;-72
2022/12/03 03:35:47;;;;;;;42.22;23.15;;;4.30;99.90;;;;;;5091659;28;20035;-72
2022/12/03 03:38:15;;;;;;;43.22;23.17;;;4.00;99.90;;;;;;5092929;28;20091;-72
2022/12/03 03:40:41;;;;;;;43.40;23.50;;;4.10;99.90;;;;;;5093141;28;20027;-72
2022/12/03 03:43:07;;;;;;;45.33;24.00;;;4.00;99.90;;;;;;5091717;28;20024;-72
2022/12/03 03:45:33;;;;;;;46.60;23.73;;;4.20;99.90;;;;;;5092540;28;20694;-72
2022/12/03 03:47:59;;;;;;;40.00;23.35;;;4.20;99.90;;;;;;5092950;28;20039;-72
2022/12/03 03:50:29;;;;;;;49.22;26.50;;;4.30;99.90;;;;;;5091546;28;20487;-72
2022/12/03 03:52:57;;;;;;;44.80;25.00;;;4.40;99.90;;;;;;5091842;28;20380;-72
2022/12/03 03:55:23;;;;;;;45.85;25.33;;;4.20;99.90;;;;;;5092689;28;20028;-72
2022/12/03 03:57:49;;;;;;;45.10;25.50;;;4.10;99.90;;;;;;5093066;28;20031;-72
2022/12/03 04:00:16;;;;;;;57.78;29.13;;;4.10;99.90;;;;;;5092209;28;20028;-72
2022/12/03 04:02:42;;;;;;;42.35;23.58;;;4.20;99.90;;;;;;5092738;28;20043;-72
2022/12/03 04:05:16;;;;;;;47.75;25.42;;;4.30;99.90;;;;;;5092476;28;20535;-72
2022/12/03 04:07:42;;;;;;;46.42;24.10;;;4.00;99.90;;;;;;5092799;28;20078;-72
2022/12/03 04:12:56;;;;;;;41.97;24.75;;;4.00;99.90;;;;;;5079846;28;20028;-73
2022/12/03 04:15:22;;;;;;;44.53;23.88;;;4.30;99.90;;;;;;5092042;28;20028;-72
2022/12/03 04:20:32;;;;;;;55.72;27.58;;;4.30;99.90;;;;;;5092485;28;20543;-72
2022/12/03 04:22:58;;;;;;;52.10;28.38;;;4.20;99.90;;;;;;5092665;28;20028;-73
2022/12/03 04:30:52;;;;;;;63.47;32.60;;;4.30;99.90;;;;;;5092156;28;20054;-72
2022/12/03 04:36:02;;;;;;;59.72;30.02;;;4.30;99.90;;;;;;5092443;28;20094;-72
2022/12/03 04:38:28;;;;;;;66.32;33.22;;;4.30;99.90;;;;;;5092378;28;20032;-72
2022/12/03 04:41:02;;;;;;;67.18;32.35;;;4.40;99.90;;;;;;5092443;28;20028;-72
2022/12/03 04:44:31;;;;;;;63.65;31.27;;;4.40;99.90;;;;;;5092408;28;20032;-72
2022/12/03 04:46:23;;;;;;;68.82;29.98;;;4.40;99.90;;;;;;5095588;28;20055;-72
2022/12/03 04:48:48;;;;;;;66.00;31.50;;;4.40;99.90;;;;;;5096203;28;20397;-73
2022/12/03 04:51:14;;;;;;;65.75;32.42;;;4.30;99.90;;;;;;5096217;28;20375;-73
2022/12/03 04:53:40;;;;;;;58.33;30.45;;;4.50;99.90;;;;;;5096165;28;20026;-73
2022/12/03 04:56:06;;;;;;;63.03;30.20;;;4.50;99.90;;;;;;5096212;28;20036;-73
2022/12/03 04:58:31;;;;;;;73.07;34.47;;;4.20;99.90;;;;;;5095632;28;20077;-72
2022/12/03 05:00:57;;;;;;;60.53;31.75;;;4.20;99.90;;;;;;5095958;28;20376;-73
2022/12/03 05:03:23;;;;;;;56.30;30.17;;;4.50;99.90;;;;;;5095770;28;20062;-72
2022/12/03 05:05:48;;;;;;;56.30;29.55;;;4.40;99.90;;;;;;5095917;28;20043;-73
2022/12/03 05:08:14;;;;;;;58.70;30.52;;;4.50;99.90;;;;;;5095924;28;20028;-73
2022/12/03 05:10:40;;;;;;;64.32;32.80;;;4.40;99.90;;;;;;5095852;28;20158;-72
2022/12/03 05:13:06;;;;;;;73.82;35.25;;;4.40;99.90;;;;;;5095347;28;20016;-73
2022/12/03 05:15:31;;;;;;;60.10;30.60;;;4.40;99.90;;;;;;5094780;28;20036;-72
2022/12/03 05:17:57;;;;;;;60.75;31.73;;;4.10;99.90;;;;;;5095727;28;20031;-72
2022/12/03 05:20:41;;;;;;;61.60;32.05;;;4.20;99.90;;;;;;5095470;28;20054;-73
2022/12/03 05:23:11;;;;;;;68.80;34.35;;;4.50;99.90;;;;;;5095473;28;20024;-73
2022/12/03 05:25:38;;;;;;;63.88;33.42;;;4.70;99.90;;;;;;5093906;28;20044;-72
2022/12/03 05:28:04;;;;;;;72.53;33.15;;;4.60;99.90;;;;;;5095011;28;20028;-72
2022/12/03 05:30:30;;;;;;;61.00;32.80;;;4.30;99.90;;;;;;5095416;28;20488;-72
2022/12/03 05:32:56;;;;;;;59.45;31.92;;;4.50;99.90;;;;;;5095210;28;20032;-72
2022/12/03 05:35:22;;;;;;;56.58;30.17;;;4.60;99.90;;;;;;5094375;28;20543;-73
2022/12/03 05:37:48;;;;;;;66.47;31.77;;;4.60;99.90;;;;;;5095370;28;20054;-73
2022/12/03 05:40:14;;;;;;;65.22;32.15;;;4.70;99.90;;;;;;5095192;28;20030;-73
2022/12/03 05:43:00;;;;;;;57.45;31.90;;;4.70;99.90;;;;;;5093820;28;20376;-73
2022/12/03 05:45:32;;;;;;;75.15;35.55;;;4.90;99.90;;;;;;5068248;28;20531;-74
2022/12/03 05:47:59;;;;;;;64.28;34.38;;;4.70;99.90;;;;;;5095335;28;20515;-73
2022/12/03 05:50:28;;;;;;;60.00;30.67;;;4.70;99.90;;;;;;5093830;28;20019;-73
2022/12/03 05:52:54;;;;;;;65.65;33.35;;;4.80;99.90;;;;;;5093809;28;20027;-73
2022/12/03 05:55:20;;;;;;;66.28;34.75;;;4.70;99.90;;;;;;5094436;28;20431;-72
2022/12/03 05:57:46;;;;;;;64.30;32.60;;;4.40;99.90;;;;;;5094666;28;20032;-73
2022/12/03 06:00:17;;;;;;;71.38;34.40;;;4.30;99.90;;;;;;5094850;28;20472;-73
2022/12/03 06:02:42;;;;;;;76.88;36.95;;;4.40;99.90;;;;;;5094836;28;20111;-73
2022/12/03 06:05:09;;;;;;;56.88;31.30;;;4.60;99.90;;;;;;5094460;28;20186;-73
2022/12/03 06:07:35;;;;;;;58.83;30.23;;;4.30;99.90;;;;;;5094703;28;20031;-73
2022/12/03 06:10:02;;;;;;;62.15;32.60;;;4.20;99.90;;;;;;5094723;28;20036;-72
2022/12/03 06:12:28;;;;;;;70.25;33.75;;;4.20;99.90;;;;;;5094400;28;20081;-72
2022/12/03 06:14:53;;;;;;;71.15;34.30;;;4.30;99.90;;;;;;5094377;28;20472;-73
2022/12/03 06:17:20;;;;;;;73.07;36.35;;;4.50;99.90;;;;;;5094550;28;20035;-72
2022/12/03 06:19:45;;;;;;;68.63;34.97;;;4.50;99.90;;;;;;5094520;28;20039;-72
2022/12/03 06:22:11;;;;;;;71.53;34.92;;;4.20;99.90;;;;;;5092890;28;20020;-72
2022/12/03 06:24:37;;;;;;;72.20;35.40;;;4.30;99.90;;;;;;5094248;28;20036;-73
2022/12/03 06:27:03;;;;;;;65.18;32.28;;;4.30;99.90;;;;;;5094201;28;20478;-72
2022/12/03 06:29:29;;;;;;;76.22;37.10;;;4.30;99.90;;;;;;5094317;28;20050;-72
2022/12/03 06:31:54;;;;;;;64.88;33.00;;;4.40;99.90;;;;;;5092932;28;20495;-72
2022/12/03 06:34:20;;;;;;;63.17;32.53;;;4.20;99.90;;;;;;5094043;28;20043;-72
2022/12/03 06:36:48;;;;;;;62.35;31.05;;;4.20;99.90;;;;;;5093836;28;20107;-72
2022/12/03 06:39:15;;;;;;;60.47;32.30;;;4.10;99.90;;;;;;5094216;28;20028;-72
2022/12/03 06:41:40;;;;;;;63.15;31.83;;;4.40;99.90;;;;;;5093665;28;20036;-73
2022/12/03 06:44:06;;;;;;;61.85;30.92;;;4.10;99.90;;;;;;5092810;28;20024;-72
2022/12/03 06:46:33;;;;;;;62.05;32.17;;;4.20;99.90;;;;;;5093784;28;20063;-72
2022/12/03 06:48:59;;;;;;;60.80;32.10;;;4.20;99.90;;;;;;5092697;28;20113;-72
2022/12/03 06:51:24;;;;;;;67.38;33.92;;;4.00;99.90;;;;;;5093980;28;20036;-72
2022/12/03 06:53:50;;;;;;;63.22;32.80;;;4.10;99.90;;;;;;5093474;28;20475;-72
2022/12/03 06:56:16;;;;;;;62.75;31.40;;;4.30;99.90;;;;;;5093907;28;20476;-72
2022/12/03 06:58:42;;;;;;;68.70;32.53;;;4.40;99.90;;;;;;5093518;28;20052;-73
2022/12/03 07:01:07;;;;;;;57.95;31.25;;;4.30;99.90;;;;;;5075411;28;20032;-72
2022/12/03 07:03:33;;;;;;;58.90;31.73;;;4.30;99.90;;;;;;5093683;28;20028;-72
2022/12/03 07:05:59;;;;;;;66.45;31.98;;;4.10;99.90;;;;;;5093390;28;20040;-72
2022/12/03 07:08:25;;;;;;;61.75;31.67;;;4.00;99.90;;;;;;5092576;28;20020;-73
2022/12/03 07:10:51;;;;;;;58.78;32.50;;;3.90;99.90;;;;;;5069517;28;20033;-72
2022/12/03 07:13:16;;;;;;;63.38;32.55;;;4.10;99.90;;;;;;5057020;28;20032;-73
2022/12/03 07:15:42;;;;;;;65.18;33.50;;;4.20;99.90;;;;;;5067493;28;20465;-73
2022/12/03 07:18:08;;;;;;;62.22;31.33;;;4.20;99.90;;;;;;5071369;28;20032;-73
2022/12/03 07:20:33;;;;;;;61.92;31.52;;;4.00;99.90;;;;;;5071937;28;20479;-73
2022/12/03 07:22:59;;;;;;;71.22;33.72;;;4.20;99.90;;;;;;5070608;28;20090;-72
2022/12/03 07:25:25;;;;;;;67.28;32.55;;;4.30;99.90;;;;;;5070755;28;20036;-72
2022/12/03 07:27:50;;;;;;;70.75;33.15;;;4.10;99.90;;;;;;5070866;28;20020;-72
2022/12/03 07:30:17;;;;;;;62.08;32.63;;;4.10;99.90;;;;;;5070734;28;20037;-73
2022/12/03 07:32:43;;;;;;;63.30;34.08;;;4.00;99.90;;;;;;5071826;28;20552;-72
2022/12/03 07:35:08;;;;;;;67.60;34.33;;;4.20;99.90;;;;;;5076217;28;20107;-73
2022/12/03 07:37:34;;;;;;;64.82;31.75;;;4.30;99.90;;;;;;5080241;28;20032;-73
2022/12/03 07:40:00;;;;;;;59.75;30.92;;;4.20;99.90;;;;;;5086924;28;20024;-72
2022/12/03 07:42:26;;;;;;;56.95;30.15;;;4.10;99.90;;;;;;5072948;28;20093;-73
2022/12/03 07:44:52;;;;;;;70.03;33.03;;;4.10;99.90;;;;;;5077671;28;20070;-73
2022/12/03 07:47:18;;;;;;;64.82;32.60;;;4.30;99.90;;;;;;5081460;28;20039;-73
2022/12/03 07:49:44;;;;;;;67.45;32.78;;;4.60;99.90;;;;;;5064996;28;20032;-72
2022/12/03 07:52:09;;;;;;;64.00;33.17;;;4.60;99.90;;;;;;5068975;28;20040;-73
2022/12/03 07:54:35;;;;;;;66.78;35.05;;;4.60;99.90;;;;;;5071690;28;20017;-73
2022/12/03 07:57:01;;;;;;;65.03;33.58;;;4.30;99.90;;;;;;5072314;28;20116;-72
2022/12/03 07:59:27;;;;;;;64.25;33.00;;;4.20;99.90;;;;;;5070524;28;20036;-72
2022/12/03 08:01:53;;;;;;;60.80;32.38;;;4.10;99.90;;;;;;5071652;28;20028;-72
2022/12/03 08:04:20;;;;;;;60.78;30.75;;;4.30;99.90;;;;;;5070389;28;20400;-73
2022/12/03 08:06:46;;;;;;;61.30;31.77;;;4.30;99.90;;;;;;5071307;28;20107;-72
2022/12/03 08:09:12;;;;;;;65.05;33.00;;;4.50;99.90;;;;;;5071661;28;20460;-73
2022/12/03 08:11:38;;;;;;;61.03;32.65;;;4.50;99.90;;;;;;5064586;28;20031;-73
2022/12/03 08:14:12;;;;;;;63.53;32.42;;;4.70;99.90;;;;;;5071499;28;20039;-73
2022/12/03 08:16:39;;;;;;;67.10;33.47;;;4.50;99.90;;;;;;5069959;28;20551;-72
2022/12/03 08:19:12;;;;;;;62.17;31.65;;;4.50;99.90;;;;;;5072869;28;20020;-73
2022/12/03 08:21:38;;;;;;;71.75;34.17;;;4.50;99.90;;;;;;5073679;28;20664;-73
2022/12/03 08:24:13;;;;;;;72.68;37.22;;;4.70;99.90;;;;;;5081711;28;20025;-73
2022/12/03 08:26:39;;;;;;;57.38;30.83;;;4.80;99.90;;;;;;5075178;28;20036;-73
2022/12/03 08:29:10;;;;;;;59.03;29.77;;;4.70;99.90;;;;;;5075436;28;20040;-73
2022/12/03 08:31:36;;;;;;;52.00;28.55;;;4.60;99.90;;;;;;5071652;28;20369;-73
2022/12/03 08:34:13;;;;;;;56.08;30.80;;;4.40;99.90;;;;;;5079100;28;20029;-73
2022/12/03 08:36:39;;;;;;;61.90;31.95;;;4.30;99.90;;;;;;5084009;28;20054;-73
2022/12/03 08:39:34;;;;;;;62.10;32.45;;;4.30;99.90;;;;;;5088870;28;20024;-73
2022/12/03 08:45:38;;;;;;;56.63;29.38;;;4.40;99.90;;;;;;5082835;28;20036;-72
2022/12/03 08:48:26;;;;;;;60.05;31.45;;;4.40;99.90;;;;;;5076217;28;20020;-72
2022/12/03 08:51:02;;;;;;;59.25;31.17;;;4.50;99.90;;;;;;5088978;28;20039;-73
2022/12/03 08:53:36;;;;;;;62.70;32.15;;;4.50;99.90;;;;;;5090038;28;20032;-73
2022/12/03 08:56:17;;;;;;;57.60;30.25;;;4.30;99.90;;;;;;5073874;28;20036;-73
2022/12/03 08:58:46;;;;;;;59.88;31.10;;;4.30;99.90;;;;;;5083945;28;20551;-72
2022/12/03 09:01:12;;;;;;;54.67;28.75;;;4.20;99.90;;;;;;5088288;28;20093;-73
2022/12/03 09:03:53;;;;;;;59.33;32.13;;;4.10;99.90;;;;;;5089790;28;20103;-73
2022/12/03 09:06:20;;;;;;;60.13;31.85;;;4.10;99.90;;;;;;5083941;28;20044;-73
2022/12/03 09:08:46;;;;;;;67.18;31.77;;;4.20;99.90;;;;;;5080586;28;20416;-72
2022/12/03 09:11:12;;;;;;;61.85;30.17;;;4.00;99.90;;;;;;5086100;28;20036;-73
2022/12/03 09:13:38;;;;;;;63.00;30.95;;;4.20;99.90;;;;;;5086318;28;20025;-72
2022/12/03 09:16:04;;;;;;;58.50;30.05;;;4.40;99.90;;;;;;5076044;28;20135;-73
2022/12/03 09:18:30;;;;;;;62.30;31.48;;;4.60;99.90;;;;;;5083483;28;20050;-73
2022/12/03 09:20:59;;;;;;;64.85;32.10;;;4.80;99.90;;;;;;5083900;28;20384;-72
2022/12/03 09:23:25;;;;;;;55.55;31.27;;;4.90;99.90;;;;;;5066370;28;20111;-73
2022/12/03 09:25:51;;;;;;;59.55;30.88;;;5.20;99.90;;;;;;5071594;28;20037;-73
2022/12/03 09:28:16;;;;;;;60.15;32.00;;;5.00;99.90;;;;;;5074238;28;20103;-74
2022/12/03 09:30:42;;;;;;;67.05;33.95;;;5.00;99.90;;;;;;5073087;28;20037;-72
2022/12/03 09:33:09;;;;;;;61.83;30.10;;;5.00;99.90;;;;;;5077254;28;20025;-71
2022/12/03 09:35:35;;;;;;;65.40;34.28;;;5.00;99.90;;;;;;5069820;28;20024;-73
2022/12/03 09:38:00;;;;;;;56.05;32.10;;;4.90;99.90;;;;;;5083962;28;20108;-73
2022/12/03 09:40:27;;;;;;;63.08;35.13;;;4.50;99.90;;;;;;5083370;28;20033;-73
2022/12/03 09:42:57;;;;;;;67.32;34.65;;;4.60;99.90;;;;;;5082200;28;20085;-72
2022/12/03 09:45:23;;;;;;;66.43;34.85;;;4.80;99.90;;;;;;5078572;28;20122;-72
2022/12/03 09:47:49;;;;;;;63.35;32.80;;;4.80;99.90;;;;;;5080719;28;20108;-72
2022/12/03 09:50:21;;;;;;;70.28;35.33;;;4.50;99.90;;;;;;5087685;28;20039;-73
2022/12/03 09:52:48;;;;;;;66.40;34.42;;;4.50;99.90;;;;;;5091595;28;20460;-73
2022/12/03 09:55:19;;;;;;;66.30;33.20;;;4.50;99.90;;;;;;5079140;28;20035;-72
2022/12/03 09:57:45;;;;;;;66.88;34.22;;;4.30;99.90;;;;;;5079051;28;20067;-73
2022/12/03 10:00:20;;;;;;;60.75;31.75;;;4.50;99.90;;;;;;5083531;28;20052;-73
2022/12/03 10:02:47;;;;;;;67.40;33.83;;;4.40;99.90;;;;;;5088063;28;20053;-73
2022/12/03 10:05:14;;;;;;;66.57;33.42;;;4.40;99.90;;;;;;5090260;28;20032;-73
2022/12/03 10:07:40;;;;;;;61.08;33.20;;;4.60;99.90;;;;;;5075973;28;20081;-73
2022/12/03 10:10:14;;;;;;;67.35;34.65;;;4.60;99.90;;;;;;5079444;28;20048;-72
2022/12/03 10:12:40;;;;;;;66.00;36.08;;;4.70;99.90;;;;;;5072264;28;20445;-72
2022/12/03 10:15:08;;;;;;;69.82;35.30;;;4.80;99.90;;;;;;5089476;28;20040;-72
2022/12/03 10:17:34;;;;;;;74.07;36.15;;;4.60;99.90;;;;;;5077692;28;20017;-73
2022/12/03 10:20:00;;;;;;;65.18;36.47;;;4.70;99.90;;;;;;5072172;28;20033;-72
2022/12/03 10:22:26;;;;;;;68.55;36.33;;;4.70;99.90;;;;;;5083232;28;20031;-73
2022/12/03 10:25:14;;;;;;;68.72;34.80;;;4.50;99.90;;;;;;5088563;28;20472;-78
2022/12/03 10:27:40;;;;;;;73.43;35.88;;;4.60;99.90;;;;;;5084904;28;20477;-79
2022/12/03 10:30:21;;;;;;;64.97;34.97;;;4.90;99.90;;;;;;5069381;28;20025;-79
2022/12/03 10:32:49;;;;;;;65.97;35.83;;;4.80;99.90;;;;;;5072568;28;20547;-79
2022/12/03 10:35:21;;;;;;;69.05;35.10;;;4.80;99.90;;;;;;5085474;28;20102;-80
2022/12/03 10:37:58;;;;;;;;;;;4.60;99.90;;;;;;5076517;28;20044;-79
2022/12/03 10:40:26;;;;;;;56.22;30.83;;;4.50;99.90;;;;;;5074451;28;20346;-79
2022/12/03 10:43:31;;;;;;;64.45;33.80;;;4.90;99.90;;;;;;5055018;28;20399;-79
2022/12/03 10:45:57;;;;;;;63.85;34.38;;;5.30;99.90;;;;;;5080423;28;20040;-78
2022/12/03 10:48:38;;;;;;;60.15;32.78;;;5.30;99.90;;;;;;5055606;28;20047;-79
2022/12/03 10:51:11;;;;;;;65.90;32.03;;;5.30;99.90;;;;;;5079070;28;20029;-79
2022/12/03 10:53:39;;;;;;;73.65;33.70;;;5.20;99.90;;;;;;5063448;28;20024;-79
2022/12/03 10:56:07;;;;;;;58.03;32.72;;;5.30;99.90;;;;;;5082976;28;20472;-78
2022/12/03 10:58:38;;;;;;;68.85;33.22;;;5.20;99.90;;;;;;5079135;28;20066;-79
2022/12/03 11:01:18;;;;;;;61.17;33.05;;;5.10;99.90;;;;;;5076969;28;20031;-79
2022/12/03 11:03:44;;;;;;;68.88;33.00;;;5.20;99.90;;;;;;5082603;28;20028;-79
2022/12/03 11:06:15;;;;;;;58.72;31.52;;;5.00;99.90;;;;;;5087762;28;20043;-79
2022/12/03 11:08:47;;;;;;;57.50;29.88;;;5.00;99.90;;;;;;5086137;28;20032;-78
2022/12/03 11:11:26;;;;;;;57.70;31.58;;;4.90;99.90;;;;;;5074963;28;20468;-79
2022/12/03 11:13:58;;;;;;;68.05;31.95;;;5.00;99.90;;;;;;5073476;28;20027;-79
2022/12/03 11:16:39;;;;;;;58.47;30.55;;;5.10;99.90;;;;;;5074529;28;20044;-79
2022/12/03 11:19:11;;;;;;;56.35;29.75;;;5.00;99.90;;;;;;5069925;28;20029;-78
2022/12/03 11:22:03;;;;;;;58.60;31.48;;;5.10;99.90;;;;;;5065468;28;20047;-79
2022/12/03 11:24:34;;;;;;;71.50;31.67;;;5.50;99.90;;;;;;5070292;28;20227;-78
2022/12/03 11:27:00;;;;;;;54.83;29.35;;;5.60;99.90;;;;;;5072618;28;20354;-80
2022/12/03 11:29:52;;;;;;;56.58;30.48;;;5.80;99.90;;;;;;5070165;28;20027;-77
2022/12/03 11:32:36;;;;;;;58.53;30.08;;;5.70;99.90;;;;;;5071757;28;20024;-79
2022/12/03 11:35:13;;;;;;;63.70;31.70;;;5.90;99.90;;;;;;5085704;28;20013;-79
2022/12/03 11:37:39;;;;;;;62.75;30.45;;;5.90;99.90;;;;;;5074755;28;20370;-79
2022/12/03 11:40:31;;;;;;;58.58;31.38;;;5.80;99.90;;;;;;5073541;28;20044;-75
2022/12/03 11:42:57;;;;;;;55.28;29.67;;;5.80;99.90;;;;;;5068632;28;20535;-78
2022/12/03 11:45:31;;;;;;;53.55;28.85;;;5.90;99.90;;;;;;5069947;28;20115;-78
2022/12/03 11:47:57;;;;;;;55.15;29.45;;;5.80;99.90;;;;;;5071864;28;20499;-79
2022/12/03 11:50:56;;;;;;;52.10;27.65;;;5.90;99.90;;;;;;5070191;28;20025;-80
2022/12/03 11:53:27;;;;;;;59.50;29.50;;;5.70;99.90;;;;;;5057637;28;20029;-79
2022/12/03 11:56:11;;;;;;;62.08;29.10;;;5.80;99.90;;;;;;5058610;28;20036;-79
2022/12/03 11:58:41;;;;;;;56.10;28.52;;;5.70;99.90;;;;;;5070735;28;20028;-79
2022/12/03 12:01:07;;;;;;;65.18;28.95;;;5.40;99.90;;;;;;5071117;28;20036;-79
2022/12/03 12:03:40;;;;;;;52.75;27.95;;;5.60;99.90;;;;;;5071171;28;20036;-79
2022/12/03 12:06:39;;;;;;;61.85;27.98;;;5.50;99.90;;;;;;5061043;28;20036;-79
2022/12/03 12:09:05;;;;;;;53.55;27.85;;;5.60;99.90;;;;;;5072177;28;20024;-78
2022/12/03 12:11:32;;;;;;;55.20;28.75;;;5.80;99.90;;;;;;5072325;28;20031;-79
2022/12/03 12:14:10;;;;;;;54.22;28.73;;;5.90;99.90;;;;;;5072025;28;20025;-79
2022/12/03 12:17:02;;;;;;;52.33;27.42;;;5.70;99.90;;;;;;5072076;28;20029;-78
2022/12/03 12:19:32;;;;;;;56.28;28.40;;;5.70;99.90;;;;;;5072390;28;20071;-79
2022/12/03 12:22:23;;;;;;;55.40;29.55;;;5.60;99.90;;;;;;5067073;28;20017;-76
2022/12/03 12:25:00;;;;;;;52.67;29.33;;;5.90;99.90;;;;;;5064147;28;20033;-79
2022/12/03 12:27:39;;;;;;;58.45;30.25;;;6.10;99.90;;;;;;5070815;28;20107;-78
2022/12/03 12:30:16;;;;;;;55.30;29.27;;;6.10;99.90;;;;;;5072629;28;20033;-79
2022/12/03 12:32:58;;;;;;;55.65;28.48;;;6.00;99.90;;;;;;5071115;28;20032;-77
2022/12/03 12:35:31;;;;;;;53.55;27.23;;;6.00;99.90;;;;;;5075166;28;20040;-78
2022/12/03 12:38:05;;;;;;;51.35;27.13;;;6.00;99.90;;;;;;5073105;28;20401;-78
2022/12/03 12:40:32;;;;;;;46.60;25.23;;;5.90;99.90;;;;;;5071269;28;20028;-77
2022/12/03 12:42:59;;;;;;;46.80;27.38;;;5.70;99.90;;;;;;5066504;28;20036;-77
2022/12/03 12:45:33;;;;;;;59.08;26.25;;;5.60;99.90;;;;;;5070465;28;20081;-79
2022/12/03 12:48:08;;;;;;;50.30;27.67;;;5.40;99.90;;;;;;5069817;28;20017;-78
2022/12/03 12:50:35;;;;;;;54.35;27.80;;;5.40;99.90;;;;;;5068897;28;20401;-75
2022/12/03 12:53:20;;;;;;;49.55;26.38;;;5.70;99.90;;;;;;5063532;28;20128;-78
2022/12/03 12:55:48;;;;;;;45.80;25.90;;;6.00;99.90;;;;;;5069761;28;20029;-78
2022/12/03 12:58:18;;;;;;;53.45;28.23;;;5.70;99.90;;;;;;5072267;28;20043;-78
2022/12/03 13:00:56;;;;;;;47.95;26.83;;;5.60;99.90;;;;;;5072215;28;20166;-79
2022/12/03 13:03:26;;;;;;;54.28;26.95;;;5.50;99.90;;;;;;5068962;28;20103;-78
2022/12/03 13:05:55;;;;;;;47.72;26.13;;;5.30;99.90;;;;;;5074635;28;20032;-79
2022/12/03 13:08:23;;;;;;;52.88;28.25;;;5.30;99.90;;;;;;5073927;28;20023;-76
2022/12/03 13:10:54;;;;;;;51.25;27.58;;;5.30;99.90;;;;;;5071776;28;20027;-78